Peotone Weather

Nearby METAR Reports

 

KIGQ - Lansing, Illinois, USA
Distance from station: NE 19mi, 30km
Updated: Wed, 22-Nov-2017 10:35am CST
Clear
Clear
 Wind from W
Wind: W 3 mph , 6 km/h
Temperature: 32°F , 0°C
Dew Point: 21°F , -6°C
Humidity: 64%
Barometer: 30.37 inHg , 1028.4 hPa
Clouds: Clear
Visibility: 10 miles , 16 km
2017/11/22 16:35 KIGQ 221635Z AUTO 28003KT 10SM CLR 00/M06 A3037 RMK AO2 T00001063
KIKK - Kankakee, Illinois, USA
Distance from station: S 19mi, 30km
Updated: Wed, 22-Nov-2017 10:15am CST
Clear
Clear
 Wind from NNW
Wind: NNW 3 mph , 6 km/h
Temperature: 30°F , -1°C
Dew Point: 16°F , -9°C
Humidity: 55%
Barometer: 30.39 inHg , 1029.1 hPa
Clouds: Clear
Visibility: 10 miles , 16 km
2017/11/22 16:15 KIKK 221615Z AUTO 34003KT 10SM CLR M01/M09 A3039 RMK AO2 T10101090
 
KSJC - Joliet, Illinois, USA
Distance from station: WNW 24mi, 38km
Updated: Wed, 22-Nov-2017 9:53am CST
NOT Current
Mostly cloudy
Mostly cloudy
 Wind from calm
Wind: Calm
Temperature: 55°F , 13°C
Dew Point: 54°F , 12°C
Humidity: 94%
Barometer: 30.16 inHg , 1021.3 hPa
Clouds: Mostly cloudy
Visibility: 7 miles , 11 km
Cloud details: Few Clouds 1000 ft
Partly cloudy 6000 ft
Mostly cloudy 10000 ft
2017/11/22 15:53 KSJC 221553Z 00000KT 7SM FEW010 SCT060 BKN100 13/12 A3016 RMK AO2 SLP212 T01280117
KLOT - Romeoville, Illinois, USA
Distance from station: NW 26mi, 41km
Updated: Wed, 22-Nov-2017 10:15am CST
Clear
Clear
 Wind from NW
Wind: NW 3 mph , 6 km/h
Temperature: 28°F , -2°C
Dew Point: 16°F , -9°C
Humidity: 59%
Barometer: 30.38 inHg , 1028.8 hPa
Clouds: Clear
Visibility: 10 miles , 16 km
2017/11/22 16:15 KLOT 221615Z AUTO 32003KT 10SM CLR M02/M09 A3038 RMK AO2 T10211088
 
KMDW - Midway Airport Chicago, Illinois, USA
Distance from station: N 31mi, 50km
Updated: Wed, 22-Nov-2017 9:53am CST
NOT Current
Few Clouds
Few Clouds
 Wind from NW
Wind: NW 6 mph , 9 km/h
Temperature: 28°F , -2°C
Wind Chill: 21°F , -6°C
Dew Point: 14°F , -10°C
Humidity: 55%
Barometer: 30.37 inHg , 1028.4 hPa
Clouds: Few Clouds
Visibility: 10 miles , 16 km
Cloud details: Few Clouds 3000 ft
2017/11/22 15:53 KMDW 221553Z 31005KT 10SM FEW030 M02/M10 A3037 RMK AO2 SLP298 T10171100
KC09 - Morris, Illinois, USA
Distance from station: W 34mi, 54km
Updated: Wed, 22-Nov-2017 10:15am CST
Clear
Clear
 Wind from WSW
Wind: WSW 3 mph , 6 km/h
Temperature: 30°F , -1°C
Dew Point: 18°F , -8°C
Humidity: 59%
Barometer: 30.38 inHg , 1028.8 hPa
Clouds: Clear
Visibility: 10 miles , 16 km
2017/11/22 16:15 KC09 221615Z AUTO 25003KT 10SM CLR M01/M08 A3038 RMK AO2 T10141084

Metar display script from Saratoga-Weather.org